Time;durP1;ratioP1;P1;durP2;ratioP2;P2;SDS_P1;SDS_P2;PMS_P1;PMS_P2;Temp;Humidity;BMP_temperature;BMP_pressure;BME280_temperature;BME280_humidity;BME280_pressure;Samples;Min_cycle;Max_cycle;Signal;HPM_P1;HPM_P2
2022/08/13 00:00:32;;;;;;;4.33;4.10;;;;;;;27.78;56.20;99087.25;4918246;29;20294;-62
2022/08/13 00:02:59;;;;;;;4.80;4.60;;;;;;;27.83;55.86;99087.13;4918247;29;20660;-62
2022/08/13 00:05:26;;;;;;;4.33;4.07;;;;;;;27.85;55.95;99087.63;4918524;29;20193;-62
2022/08/13 00:07:54;;;;;;;4.93;4.53;;;;;;;27.87;55.44;99077.19;4918135;29;20705;-62
2022/08/13 00:10:24;;;;;;;4.40;4.20;;;;;;;27.79;55.80;99080.66;4918026;29;20549;-62
2022/08/13 00:13:03;;;;;;;4.60;4.30;;;;;;;27.81;55.89;99072.97;4919004;29;20276;-62
2022/08/13 00:15:32;;;;;;;5.10;4.80;;;;;;;27.81;55.41;99072.97;4918437;29;20280;-62
2022/08/13 00:18:01;;;;;;;5.27;4.93;;;;;;;27.71;56.04;99067.81;4918016;29;20193;-63
2022/08/13 00:20:33;;;;;;;5.13;4.83;;;;;;;27.73;55.50;99071.03;4918202;29;20241;-63
2022/08/13 00:23:00;;;;;;;5.80;5.23;;;;;;;27.70;55.74;99067.03;4917942;29;20648;-63
2022/08/13 00:25:29;;;;;;;4.73;4.53;;;;;;;27.57;55.46;99062.47;4918089;29;20288;-63
2022/08/13 00:27:58;;;;;;;5.60;5.30;;;;;;;27.48;55.70;99071.78;4918371;29;20197;-63
2022/08/13 00:30:30;;;;;;;4.83;4.53;;;;;;;27.32;56.51;99062.41;4918132;29;20233;-62
2022/08/13 00:32:59;;;;;;;4.90;4.70;;;;;;;27.20;57.32;99057.53;4918056;29;20193;-62
2022/08/13 00:35:27;;;;;;;4.97;4.57;;;;;;;27.14;57.44;99050.59;4917991;29;20261;-62
2022/08/13 00:37:56;;;;;;;4.90;4.70;;;;;;;27.17;57.39;99058.16;4917669;29;20284;-63
2022/08/13 00:40:23;;;;;;;5.00;4.67;;;;;;;27.13;57.65;99059.06;4917781;29;20389;-62
2022/08/13 00:42:52;;;;;;;4.87;4.57;;;;;;;27.27;57.51;99055.16;4918161;29;20197;-62
2022/08/13 00:45:20;;;;;;;5.87;5.47;;;;;;;27.36;57.10;99055.19;4917732;29;20252;-62
2022/08/13 00:50:33;;;;;;;7.07;5.10;;;;;;;27.30;56.97;99056.44;4917520;29;20213;-63
2022/08/13 00:53:01;;;;;;;5.23;4.80;;;;;;;27.31;57.14;99061.59;4917374;29;20197;-62
2022/08/13 00:55:28;;;;;;;7.57;5.03;;;;;;;27.37;56.50;99065.00;4917329;29;20633;-62
2022/08/13 00:57:58;;;;;;;5.87;5.37;;;;;;;27.40;56.63;99062.41;4917238;29;20592;-61
2022/08/13 01:00:27;;;;;;;5.57;5.13;;;;;;;27.40;56.39;99058.91;4917137;29;20193;-62
2022/08/13 01:02:55;;;;;;;5.00;4.60;;;;;;;27.32;56.68;99056.94;4917542;29;20265;-62
2022/08/13 01:05:24;;;;;;;5.80;5.43;;;;;;;27.42;56.82;99053.91;4916945;29;20198;-62
2022/08/13 01:07:51;;;;;;;5.50;5.00;;;;;;;27.39;56.65;99044.44;4917052;29;20763;-62
2022/08/13 01:10:19;;;;;;;4.90;4.60;;;;;;;27.40;56.38;99053.44;4917478;29;20197;-62
2022/08/13 01:12:50;;;;;;;5.30;5.00;;;;;;;27.36;56.13;99049.75;4916935;29;20237;-62
2022/08/13 01:15:20;;;;;;;5.47;4.97;;;;;;;27.34;56.76;99051.97;4917344;29;20190;-62
2022/08/13 01:17:47;;;;;;;5.43;4.90;;;;;;;27.41;56.71;99055.88;4916900;29;20201;-62
2022/08/13 01:20:21;;;;;;;5.43;4.90;;;;;;;27.44;56.45;99047.03;4917217;29;20302;-62
2022/08/13 01:22:51;;;;;;;5.30;4.80;;;;;;;27.49;56.04;99059.72;4917440;29;20194;-62
2022/08/13 01:25:19;;;;;;;5.43;4.90;;;;;;;27.48;56.22;99048.00;4917150;29;20618;-62
2022/08/13 01:27:46;;;;;;;6.00;4.83;;;;;;;27.48;56.24;99047.22;4916677;29;20233;-62
2022/08/13 01:30:15;;;;;;;5.40;5.00;;;;;;;27.52;56.11;99042.72;4916594;29;20201;-63
2022/08/13 01:32:43;;;;;;;8.33;4.60;;;;;;;27.49;56.25;99043.34;4916510;29;20229;-63
2022/08/13 01:35:10;;;;;;;5.60;5.20;;;;;;;27.47;55.57;99059.22;4917078;29;20193;-63
2022/08/13 01:37:38;;;;;;;4.93;4.50;;;;;;;27.38;55.86;99053.75;4917356;29;20257;-63
2022/08/13 01:40:08;;;;;;;7.27;4.90;;;;;;;27.30;56.53;99045.53;4916338;29;20689;-63
2022/08/13 01:42:41;;;;;;;4.87;4.53;;;;;;;27.17;56.86;99041.78;4916749;29;20205;-62
2022/08/13 01:45:09;;;;;;;5.67;5.00;;;;;;;27.14;56.87;99038.84;4916409;29;20245;-62
2022/08/13 01:50:32;;;;;;;5.37;4.90;;;;;;;26.85;57.96;99042.09;4916614;29;20193;-62
2022/08/13 01:53:01;;;;;;;4.87;4.50;;;;;;;26.85;57.80;99038.56;4916648;29;20272;-62
2022/08/13 01:55:38;;;;;;;5.67;5.17;;;;;;;26.76;58.39;99035.00;4916753;29;20201;-62
2022/08/13 01:58:07;;;;;;;6.13;5.50;;;;;;;26.74;58.65;99037.25;4916233;29;20189;-62
2022/08/13 02:00:34;;;;;;;5.70;5.20;;;;;;;26.68;59.05;99041.19;4916106;29;20205;-62
2022/08/13 02:03:04;;;;;;;5.93;5.47;;;;;;;26.57;59.48;99043.34;4916081;29;20249;-62
2022/08/13 02:05:31;;;;;;;6.60;6.03;;;;;;;26.53;59.34;99036.91;4916107;29;20197;-62
2022/08/13 02:07:59;;;;;;;4.97;4.67;;;;;;;26.50;59.75;99031.28;4916287;29;20316;-62
2022/08/13 02:10:25;;;;;;;5.80;5.30;;;;;;;26.50;60.06;99031.28;4916233;29;20628;-62
2022/08/13 02:12:54;;;;;;;8.63;7.17;;;;;;;26.50;60.00;99031.28;4915993;29;20225;-62
2022/08/13 02:15:20;;;;;;;5.97;5.47;;;;;;;26.54;59.64;99027.59;4915072;29;20733;-62
2022/08/13 02:17:47;;;;;;;7.53;6.43;;;;;;;26.53;59.62;99033.38;4916279;29;20197;-62
2022/08/13 02:20:17;;;;;;;7.33;5.70;;;;;;;26.45;59.80;99031.41;4916356;29;20201;-62
2022/08/13 02:22:45;;;;;;;6.37;5.70;;;;;;;26.39;60.14;99035.38;4916849;29;20205;-62
2022/08/13 02:25:13;;;;;;;6.47;5.63;;;;;;;26.29;60.68;99030.19;4916017;29;20294;-62
2022/08/13 02:27:41;;;;;;;5.93;5.43;;;;;;;26.31;60.68;99033.38;4916153;29;20292;-62
2022/08/13 02:30:11;;;;;;;6.00;5.40;;;;;;;26.24;61.48;99033.00;4916095;29;20197;-63
2022/08/13 02:32:39;;;;;;;6.23;5.63;;;;;;;26.26;60.87;99030.78;4915956;29;20280;-62
2022/08/13 02:35:08;;;;;;;5.60;5.20;;;;;;;26.31;60.60;99038.81;4916339;29;20261;-62
2022/08/13 02:37:37;;;;;;;6.30;5.80;;;;;;;26.32;60.58;99038.53;4915955;29;20233;-62
2022/08/13 02:41:38;;;;;;;6.03;5.63;;;;;;;26.39;60.73;99035.38;4916025;29;20667;-62
2022/08/13 02:42:53;;;;;;;6.47;5.27;;;;;;;26.43;60.81;99041.81;4915722;29;20252;-62
2022/08/13 02:45:23;;;;;;;5.80;5.40;;;;;;;26.50;60.37;99039.47;4915907;29;20639;-62
2022/08/13 02:47:52;;;;;;;5.60;5.30;;;;;;;26.55;60.25;99039.31;4915691;29;20732;-62
2022/08/13 02:50:20;;;;;;;6.33;5.83;;;;;;;26.53;59.62;99052.44;4915692;29;20284;-62
2022/08/13 02:52:48;;;;;;;6.03;5.63;;;;;;;26.58;60.05;99049.63;4915792;29;20229;-62
2022/08/13 02:55:15;;;;;;;6.60;6.00;;;;;;;26.61;59.78;99055.25;4915608;29;20691;-62
2022/08/13 02:57:42;;;;;;;6.90;6.50;;;;;;;26.62;59.25;99053.34;4915802;29;20198;-63
2022/08/13 03:00:10;;;;;;;6.70;6.20;;;;;;;26.58;59.62;99064.06;4916187;29;20201;-62
2022/08/13 03:02:44;;;;;;;6.77;6.23;;;;;;;26.55;60.15;99061.13;4915420;29;20203;-63
2022/08/13 03:05:13;;;;;;;7.63;6.90;;;;;;;26.52;60.27;99062.53;4915590;29;20193;-62
2022/08/13 03:07:41;;;;;;;7.40;6.80;;;;;;;26.41;60.75;99065.84;4915525;29;20205;-62
2022/08/13 03:10:11;;;;;;;7.63;6.83;;;;;;;26.22;61.42;99062.47;4916878;29;20193;-62
2022/08/13 03:12:40;;;;;;;6.73;6.23;;;;;;;26.11;62.17;99063.81;4915971;29;20225;-62
2022/08/13 03:15:09;;;;;;;6.50;6.07;;;;;;;26.13;62.50;99064.31;4915668;29;20209;-62
2022/08/13 03:17:36;;;;;;;7.80;7.10;;;;;;;26.22;61.41;99062.47;4915301;29;20574;-62
2022/08/13 03:20:06;;;;;;;6.90;6.50;;;;;;;26.18;61.60;99058.75;4915390;29;20676;-61
2022/08/13 03:22:46;;;;;;;7.07;6.47;;;;;;;26.16;61.93;99059.06;4914937;29;20212;-61
2022/08/13 03:25:12;;;;;;;9.87;6.33;;;;;;;26.28;62.01;99066.66;4915491;29;20193;-62
2022/08/13 03:27:39;;;;;;;6.67;6.13;;;;;;;26.30;61.41;99059.00;4917175;29;20681;-62
2022/08/13 03:30:09;;;;;;;7.03;6.47;;;;;;;26.19;61.96;99063.06;4918865;29;20665;-62
2022/08/13 03:32:40;;;;;;;7.23;6.73;;;;;;;26.06;62.49;99059.31;4919240;29;20280;-61
2022/08/13 03:35:11;;;;;;;7.10;6.60;;;;;;;25.96;63.30;99058.72;4919391;29;20197;-61
2022/08/13 03:37:38;;;;;;;7.63;7.00;;;;;;;25.95;62.77;99070.72;4919418;29;20216;-61
2022/08/13 03:40:06;;;;;;;8.03;7.23;;;;;;;25.83;63.06;99064.94;4918526;29;20630;-61
2022/08/13 03:42:34;;;;;;;7.53;7.03;;;;;;;25.87;63.07;99064.03;4918825;29;20213;-62
2022/08/13 03:45:02;;;;;;;7.53;6.77;;;;;;;25.95;62.47;99066.06;4918852;29;20203;-61
2022/08/13 03:47:28;;;;;;;7.47;6.73;;;;;;;25.89;63.17;99066.47;4919040;29;20253;-61
2022/08/13 03:49:55;;;;;;;8.63;8.03;;;;;;;25.98;62.57;99070.09;4918829;29;20201;-61
2022/08/13 03:52:23;;;;;;;8.00;7.33;;;;;;;25.96;62.56;99072.34;4918558;29;20276;-61
2022/08/13 03:54:50;;;;;;;7.00;6.50;;;;;;;25.93;62.89;99070.97;4918462;29;20208;-61
2022/08/13 03:57:19;;;;;;;8.53;7.70;;;;;;;26.08;62.13;99078.03;4918996;29;20277;-62
2022/08/13 03:59:46;;;;;;;8.40;7.77;;;;;;;26.24;62.35;99071.13;4918318;29;20763;-62
2022/08/13 04:02:15;;;;;;;7.73;7.27;;;;;;;26.45;61.37;99077.72;4918185;29;20244;-62
2022/08/13 04:04:42;;;;;;;8.17;7.60;;;;;;;26.57;60.97;99072.50;4918497;29;20288;-62
2022/08/13 04:07:09;;;;;;;12.13;7.40;;;;;;;26.69;60.63;99080.94;4918139;29;20205;-62
2022/08/13 04:09:37;;;;;;;8.90;8.10;;;;;;;26.89;59.01;99083.97;4919000;29;20721;-62
2022/08/13 04:12:09;;;;;;;10.40;7.10;;;;;;;27.05;58.21;99081.66;4917976;29;20277;-62
2022/08/13 04:14:36;;;;;;;7.93;7.53;;;;;;;27.34;56.44;99090.16;4918363;29;20214;-62
2022/08/13 04:17:05;;;;;;;7.00;6.30;;;;;;;27.55;56.63;99083.81;4918217;29;20244;-62
2022/08/13 04:19:33;;;;;;;6.60;6.10;;;;;;;27.86;55.27;99090.06;4918369;29;20600;-62
2022/08/13 04:22:01;;;;;;;7.50;6.67;;;;;;;28.22;52.45;99100.69;4918184;29;20669;-62
2022/08/13 04:24:28;;;;;;;10.40;6.40;;;;;;;28.55;51.91;99088.19;4918181;29;20292;-62
2022/08/13 04:26:58;;;;;;;6.20;5.80;;;;;;;28.92;50.35;99090.22;4918103;29;20292;-62
2022/08/13 04:29:25;;;;;;;5.97;5.47;;;;;;;29.24;46.83;99085.00;4917864;29;20732;-62
2022/08/13 04:31:52;;;;;;;5.30;5.00;;;;;;;29.50;46.28;99087.63;4917917;29;20284;-62
2022/08/13 04:34:20;;;;;;;6.00;5.50;;;;;;;29.81;45.19;99106.50;4918581;29;20627;-62
2022/08/13 04:36:48;;;;;;;6.87;4.77;;;;;;;30.02;45.35;99099.94;4917623;29;20583;-63
2022/08/13 04:39:15;;;;;;;5.60;5.03;;;;;;;30.20;44.58;99101.44;4916704;29;20205;-62
2022/08/13 04:41:42;;;;;;;5.93;5.43;;;;;;;30.56;44.23;99098.88;4917813;29;20201;-63
2022/08/13 04:44:10;;;;;;;6.20;4.40;;;;;;;30.95;42.87;99101.09;4917788;29;20229;-63
2022/08/13 04:46:37;;;;;;;5.60;5.30;;;;;;;31.32;43.01;99102.03;4917435;29;20197;-64
2022/08/13 04:49:04;;;;;;;6.30;5.60;;;;;;;31.59;42.27;99104.91;4917779;29;20225;-63
2022/08/13 04:51:32;;;;;;;7.70;7.07;;;;;;;31.79;42.05;99106.75;4917433;29;20240;-63
2022/08/13 04:53:59;;;;;;;7.40;6.67;;;;;;;32.08;41.88;99100.19;4917535;29;20211;-63
2022/08/13 04:56:25;;;;;;;6.70;5.63;;;;;;;32.24;40.65;99099.13;4917572;29;20232;-63
2022/08/13 04:58:52;;;;;;;8.30;6.77;;;;;;;32.57;40.24;99096.19;4917499;29;20248;-63
2022/08/13 05:01:22;;;;;;;6.70;5.90;;;;;;;32.78;39.14;99097.59;4917560;29;20198;-64
2022/08/13 05:03:51;;;;;;;5.73;5.40;;;;;;;32.94;38.85;99089.38;4917039;29;20634;-63
2022/08/13 05:06:19;;;;;;;5.90;5.60;;;;;;;33.16;38.33;99095.09;4918229;29;20229;-63
2022/08/13 05:08:46;;;;;;;7.40;6.73;;;;;;;33.19;38.49;99080.63;4917332;29;20241;-63
2022/08/13 05:11:14;;;;;;;6.17;5.67;;;;;;;33.28;38.47;99086.00;4917053;29;20254;-63
2022/08/13 05:13:43;;;;;;;6.17;5.57;;;;;;;33.25;38.37;99093.00;4917226;29;20229;-63
2022/08/13 05:16:12;;;;;;;6.33;5.83;;;;;;;33.23;37.86;99087.03;4917041;29;20201;-63
2022/08/13 05:18:44;;;;;;;5.70;5.30;;;;;;;32.95;38.63;99091.00;4917029;29;20288;-63
2022/08/13 05:21:11;;;;;;;5.77;5.20;;;;;;;32.61;39.30;99089.66;4917170;29;20216;-62
2022/08/13 05:23:40;;;;;;;5.80;5.40;;;;;;;32.36;40.07;99084.56;4917402;29;20601;-62
2022/08/13 05:26:08;;;;;;;6.03;5.63;;;;;;;32.33;39.72;99075.06;4916805;29;20197;-63
2022/08/13 05:28:36;;;;;;;12.77;6.87;;;;;;;32.59;39.62;99078.19;4916464;29;20625;-63
2022/08/13 05:31:03;;;;;;;6.43;5.90;;;;;;;32.76;38.85;99080.66;4916510;29;20257;-63
2022/08/13 05:33:31;;;;;;;6.67;6.17;;;;;;;32.81;38.99;99074.91;4916381;29;20761;-63
2022/08/13 05:36:01;;;;;;;11.60;6.97;;;;;;;32.96;38.47;99082.38;4917004;29;20258;-64
2022/08/13 05:38:29;;;;;;;8.07;7.33;;;;;;;33.31;38.08;99082.50;4917107;29;20204;-63
2022/08/13 05:40:58;;;;;;;6.27;5.77;;;;;;;33.43;37.64;99079.69;4916623;29;20245;-65
2022/08/13 05:43:27;;;;;;;9.00;6.27;;;;;;;33.63;37.38;99075.06;4916241;29;20437;-63
2022/08/13 05:45:58;;;;;;;7.10;6.10;;;;;;;34.01;36.90;99081.50;4916346;29;20201;-63
2022/08/13 05:48:26;;;;;;;7.50;6.25;;;;;;;34.16;36.55;99074.34;4916311;29;20194;-64
2022/08/13 05:50:53;;;;;;;13.83;6.43;;;;;;;34.48;35.77;99068.38;4915550;29;20219;-64
2022/08/13 05:53:21;;;;;;;7.88;7.40;;;;;;;34.91;34.65;99076.31;4914288;29;20214;-64
2022/08/13 05:55:48;;;;;;;10.82;7.10;;;;;;;34.87;34.24;99078.22;4915723;29;20194;-65
2022/08/13 05:58:16;;;;;;;7.75;6.28;;;;;;;34.84;34.65;99076.22;4915787;29;20197;-64
2022/08/13 06:03:27;;;;;;;7.68;6.30;;;;;;;34.98;34.53;99075.69;4914456;29;20684;-63
2022/08/13 06:05:55;;;;;;;8.45;6.60;;;;;;;35.09;34.04;99074.69;4915704;29;20193;-63
2022/08/13 06:08:29;;;;;;;10.68;7.07;;;;;;;35.07;34.52;99062.44;4916188;29;20233;-64
2022/08/13 06:10:57;;;;;;;8.00;7.35;;;;;;;35.42;33.96;99076.88;4915979;29;20732;-64
2022/08/13 06:13:24;;;;;;;10.43;7.65;;;;;;;35.41;34.12;99069.75;4915846;29;20261;-65
2022/08/13 06:15:58;;;;;;;7.95;7.20;;;;;;;35.59;34.22;99065.28;4916418;29;20616;-65
2022/08/13 06:18:27;;;;;;;8.00;7.30;;;;;;;35.63;33.41;99071.69;4915126;29;20193;-65
2022/08/13 06:20:55;;;;;;;8.32;7.10;;;;;;;35.28;33.46;99071.13;4915551;29;20197;-65
2022/08/13 06:23:24;;;;;;;8.98;7.90;;;;;;;35.08;34.10;99066.78;4915764;29;20360;-64
2022/08/13 06:25:52;;;;;;;7.88;7.13;;;;;;;34.85;34.55;99069.53;4914959;29;20201;-65
2022/08/13 06:28:21;;;;;;;15.10;7.70;;;;;;;34.86;34.94;99062.03;4915663;29;20202;-65
2022/08/13 06:30:50;;;;;;;8.38;7.53;;;;;;;34.75;35.23;99063.78;4916133;29;20208;-65
2022/08/13 06:33:21;;;;;;;7.55;6.85;;;;;;;34.95;34.78;99062.59;4916098;29;20316;-65
2022/08/13 06:35:49;;;;;;;8.30;7.65;;;;;;;35.09;34.16;99063.66;4916561;29;20189;-66
2022/08/13 06:38:18;;;;;;;8.05;7.43;;;;;;;35.22;34.08;99065.06;4915618;29;20779;-65
2022/08/13 06:40:46;;;;;;;6.53;6.13;;;;;;;35.06;34.59;99063.56;4878138;29;20285;-65
2022/08/13 06:43:16;;;;;;;8.00;7.28;;;;;;;35.15;34.55;99056.66;4878828;29;20259;-65
2022/08/13 06:45:43;;;;;;;8.00;7.50;;;;;;;35.29;34.49;99058.88;4878976;29;20742;-65
2022/08/13 06:48:10;;;;;;;9.05;7.22;;;;;;;35.04;34.77;99049.34;4878261;29;20202;-65
2022/08/13 06:50:37;;;;;;;13.30;8.55;;;;;;;35.18;34.05;99049.59;4878930;29;20202;-65
2022/08/13 06:53:05;;;;;;;9.98;7.55;;;;;;;35.20;33.90;99050.03;4878693;29;20231;-65
2022/08/13 06:55:36;;;;;;;7.43;6.70;;;;;;;35.23;34.10;99050.06;4878264;29;20202;-65
2022/08/13 06:58:03;;;;;;;8.45;7.22;;;;;;;35.13;34.26;99047.13;4878118;29;20187;-65
2022/08/13 07:00:32;;;;;;;11.13;7.47;;;;;;;35.26;34.21;99052.09;4877815;29;20206;-65
2022/08/13 07:03:00;;;;;;;7.50;6.80;;;;;;;35.43;34.00;99045.31;4880885;29;20206;-65
2022/08/13 07:05:35;;;;;;;7.82;7.22;;;;;;;35.54;33.50;99046.28;4881930;29;20258;-65
2022/08/13 07:08:04;;;;;;;9.93;7.47;;;;;;;35.70;33.30;99049.69;4881459;29;20276;-65
2022/08/13 07:10:33;;;;;;;8.63;7.95;;;;;;;35.69;33.30;99053.63;4881570;29;20199;-65
2022/08/13 07:13:00;;;;;;;8.88;7.88;;;;;;;35.59;32.97;99044.00;4881793;29;20285;-65
2022/08/13 07:15:27;;;;;;;10.50;7.70;;;;;;;35.50;32.75;99048.19;4881490;29;20691;-65
2022/08/13 07:17:56;;;;;;;9.95;8.35;;;;;;;35.52;32.37;99051.38;4881461;29;20624;-65
2022/08/13 07:20:23;;;;;;;8.57;7.82;;;;;;;35.43;33.01;99050.84;4881352;29;20199;-65
2022/08/13 07:22:50;;;;;;;11.70;9.02;;;;;;;35.17;33.40;99048.81;4881413;29;20206;-65
2022/08/13 07:25:18;;;;;;;13.27;9.07;;;;;;;35.18;32.67;99049.59;4881298;29;20206;-65
2022/08/13 07:27:45;;;;;;;11.98;8.45;;;;;;;35.43;31.53;99050.84;4881329;29;20254;-65
2022/08/13 07:30:14;;;;;;;10.23;8.68;;;;;;;35.59;31.27;99055.06;4881197;29;20198;-65
2022/08/13 07:32:42;;;;;;;10.70;9.68;;;;;;;35.78;31.19;99046.69;4881166;29;20234;-66
2022/08/13 07:35:11;;;;;;;9.27;8.68;;;;;;;35.81;31.13;99036.84;4881533;29;20203;-65
2022/08/13 07:37:39;;;;;;;11.23;10.00;;;;;;;35.72;30.92;99037.06;4881483;29;20205;-65
2022/08/13 07:40:08;;;;;;;12.35;9.07;;;;;;;35.76;30.83;99031.66;4909620;29;20228;-65
2022/08/13 07:42:38;;;;;;;11.45;8.85;;;;;;;35.51;31.93;99042.28;4919137;29;20233;-65
2022/08/13 07:45:06;;;;;;;9.65;8.98;;;;;;;35.50;31.68;99028.84;4918511;29;20232;-65
2022/08/13 07:47:34;;;;;;;10.23;9.30;;;;;;;35.58;31.89;99031.34;4919382;29;20209;-65
2022/08/13 07:50:05;;;;;;;10.20;9.20;;;;;;;35.77;31.16;99028.47;4918884;29;20197;-65
2022/08/13 07:52:33;;;;;;;10.48;9.15;;;;;;;36.05;31.01;99033.63;4919029;29;20198;-65
2022/08/13 07:55:01;;;;;;;9.65;9.05;;;;;;;36.21;30.86;99031.47;4918641;29;20618;-65
2022/08/13 07:57:30;;;;;;;10.55;9.43;;;;;;;36.57;30.31;99028.78;4918403;29;20732;-64
2022/08/13 07:59:57;;;;;;;10.32;9.30;;;;;;;36.76;29.18;99025.03;4918548;29;20257;-64
2022/08/13 08:02:26;;;;;;;8.93;8.25;;;;;;;36.71;29.41;99017.88;4918471;29;20205;-63
2022/08/13 08:04:57;;;;;;;12.85;9.75;;;;;;;36.64;30.03;99016.97;4918383;29;20292;-64
2022/08/13 08:07:25;;;;;;;10.30;9.30;;;;;;;36.89;29.42;99015.28;4919355;29;20220;-64
2022/08/13 08:09:54;;;;;;;10.85;9.25;;;;;;;37.21;29.23;99010.84;4918169;29;20613;-64
2022/08/13 08:12:35;;;;;;;10.50;9.25;;;;;;;37.43;28.51;99015.38;4918367;29;20614;-65
2022/08/13 08:15:02;;;;;;;10.20;9.40;;;;;;;37.27;28.54;99001.00;4917604;29;20196;-64
2022/08/13 08:17:31;;;;;;;11.05;9.55;;;;;;;37.38;28.71;99004.66;4918537;29;20194;-64
2022/08/13 08:19:58;;;;;;;10.32;9.32;;;;;;;37.63;28.82;99004.88;4917810;29;20205;-63
2022/08/13 08:22:25;;;;;;;10.35;9.32;;;;;;;37.33;28.73;98999.47;4918274;29;20237;-63
2022/08/13 08:24:54;;;;;;;9.63;8.73;;;;;;;37.15;28.78;98995.78;4917840;29;20704;-64
2022/08/13 08:27:20;;;;;;;10.32;9.35;;;;;;;37.37;28.65;98996.72;4918169;29;20623;-64
2022/08/13 08:29:49;;;;;;;11.60;9.88;;;;;;;37.70;28.39;98999.34;4918031;29;20194;-64
2022/08/13 08:32:17;;;;;;;10.88;9.80;;;;;;;37.98;27.74;98997.53;4917961;29;20201;-64
2022/08/13 08:34:46;;;;;;;10.70;9.63;;;;;;;38.05;27.50;98991.25;4918327;29;20229;-64
2022/08/13 08:42:35;;;;;;;11.10;8.88;;;;;;;37.91;28.14;98996.69;4918009;29;20197;-66
2022/08/13 08:42:54;;;;;;;10.45;9.45;;;;;;;38.19;27.90;98978.22;4917776;29;20393;-65
2022/08/13 08:45:24;;;;;;;10.23;9.20;;;;;;;37.59;27.89;98974.31;4917662;29;20553;-65
2022/08/13 08:47:52;;;;;;;11.13;9.70;;;;;;;37.13;29.43;98964.84;4917523;29;20202;-67
2022/08/13 08:50:20;;;;;;;9.63;8.82;;;;;;;37.49;29.00;98961.16;4917591;29;20244;-66
2022/08/13 08:55:36;;;;;;;10.43;9.63;;;;;;;36.84;29.40;98957.47;4917374;29;20188;-66
2022/08/13 08:58:05;;;;;;;10.57;9.63;;;;;;;37.06;28.74;98948.16;4917383;29;20201;-66
2022/08/13 09:00:33;;;;;;;11.23;10.20;;;;;;;37.01;29.47;98949.31;4917476;29;20202;-66
2022/08/13 09:03:01;;;;;;;11.10;10.05;;;;;;;37.15;29.05;98949.44;4917735;29;20201;-66
2022/08/13 09:05:28;;;;;;;10.85;10.00;;;;;;;37.46;28.72;98941.72;4917300;29;20197;-66
2022/08/13 09:07:55;;;;;;;11.20;8.43;;;;;;;37.62;28.54;98943.06;4917433;29;20301;-66
2022/08/13 09:10:24;;;;;;;9.55;8.77;;;;;;;37.80;28.03;98943.94;4917703;29;20245;-64
2022/08/13 09:12:52;;;;;;;10.32;9.57;;;;;;;37.83;27.83;98937.63;4917128;29;20201;-64
2022/08/13 09:15:21;;;;;;;9.90;9.25;;;;;;;37.77;27.58;98939.19;4916924;29;20623;-64
2022/08/13 09:17:49;;;;;;;10.23;9.23;;;;;;;37.25;28.83;98925.78;4917942;29;20205;-64
2022/08/13 09:20:17;;;;;;;10.32;9.52;;;;;;;37.11;28.19;98925.66;4917076;29;20288;-64
2022/08/13 09:22:45;;;;;;;10.32;9.52;;;;;;;36.17;30.44;98919.97;4916848;29;20205;-67
2022/08/13 09:25:15;;;;;;;11.00;10.02;;;;;;;36.06;30.28;98916.28;4916643;29;20205;-66
2022/08/13 09:27:43;;;;;;;11.10;9.52;;;;;;;35.84;30.99;98906.16;4916724;29;20253;-67
2022/08/13 09:30:13;;;;;;;10.40;9.60;;;;;;;36.25;31.08;98902.31;4916575;29;20735;-66
2022/08/13 09:32:40;;;;;;;10.27;9.45;;;;;;;36.27;29.61;98903.53;4916584;29;20216;-66
2022/08/13 09:35:08;;;;;;;11.70;9.70;;;;;;;36.56;29.70;98904.56;4916460;29;20714;-66
2022/08/13 09:37:35;;;;;;;10.43;9.57;;;;;;;36.87;28.00;98902.09;4916876;29;20193;-66
2022/08/13 09:40:06;;;;;;;10.07;9.13;;;;;;;37.00;28.69;98891.53;4916666;29;20197;-66
2022/08/13 09:42:37;;;;;;;10.25;9.55;;;;;;;37.26;27.53;98893.31;4916687;29;20288;-66
2022/08/13 09:45:06;;;;;;;10.80;9.60;;;;;;;37.36;27.90;98896.16;4917058;29;20261;-66
2022/08/13 09:47:35;;;;;;;10.35;9.45;;;;;;;37.43;27.45;98893.41;4916351;29;20198;-64
2022/08/13 09:50:02;;;;;;;10.15;9.45;;;;;;;37.38;27.20;98891.00;4916808;29;20235;-65
2022/08/13 09:52:28;;;;;;;9.52;8.90;;;;;;;37.24;26.74;98886.16;4916544;29;20212;-64
2022/08/13 09:54:57;;;;;;;10.13;9.32;;;;;;;37.13;26.48;98893.66;4916238;29;20614;-64
2022/08/13 09:57:25;;;;;;;10.23;9.50;;;;;;;37.04;27.34;98882.06;4916756;29;20197;-64
2022/08/13 09:59:53;;;;;;;10.70;9.55;;;;;;;36.75;26.80;98896.88;4916516;29;20201;-64
2022/08/13 10:02:21;;;;;;;9.73;9.02;;;;;;;36.74;26.88;98888.94;4915951;29;20233;-64
2022/08/13 10:04:55;;;;;;;10.10;9.25;;;;;;;36.94;27.65;98881.97;4916006;29;20708;-64
2022/08/13 10:07:21;;;;;;;10.32;9.52;;;;;;;36.74;28.01;98878.66;4915865;29;20210;-65
2022/08/13 10:09:49;;;;;;;9.82;9.15;;;;;;;36.69;27.52;98869.91;4916768;29;20289;-64
2022/08/13 10:12:18;;;;;;;9.25;8.65;;;;;;;36.04;26.21;98897.28;4916246;29;20209;-65
2022/08/13 10:14:45;;;;;;;8.55;7.88;;;;;;;36.29;25.46;98894.84;4916203;29;20221;-65
2022/08/13 10:17:12;;;;;;;9.07;8.10;;;;;;;36.22;26.15;98886.47;4916377;29;20284;-66
2022/08/13 10:19:39;;;;;;;12.35;9.13;;;;;;;36.51;25.73;98871.72;4915894;29;20741;-66
2022/08/13 10:22:07;;;;;;;10.40;9.45;;;;;;;36.82;25.39;98873.97;4916221;29;20201;-66
2022/08/13 10:24:34;;;;;;;9.68;8.45;;;;;;;36.85;25.95;98867.66;4915775;29;20621;-66
2022/08/13 10:27:00;;;;;;;9.57;8.50;;;;;;;36.50;26.51;98851.53;4916254;29;20197;-66
2022/08/13 10:29:27;;;;;;;8.93;8.02;;;;;;;36.65;25.99;98846.91;4915696;29;20201;-66
2022/08/13 10:31:54;;;;;;;9.55;8.68;;;;;;;36.46;25.98;98849.94;4916049;29;20205;-66
2022/08/13 10:34:22;;;;;;;9.93;8.40;;;;;;;36.57;25.83;98845.25;4916164;29;20224;-66
2022/08/13 10:36:49;;;;;;;8.18;7.63;;;;;;;36.79;26.12;98853.38;4915796;29;20225;-66
2022/08/13 10:39:17;;;;;;;7.93;7.22;;;;;;;36.80;25.44;98840.34;4915791;29;20289;-66
2022/08/13 10:41:44;;;;;;;7.93;7.40;;;;;;;36.94;24.83;98845.97;4916072;29;20264;-66
2022/08/13 10:44:13;;;;;;;7.65;7.18;;;;;;;37.13;24.52;98840.16;4915619;29;20201;-66
2022/08/13 10:46:41;;;;;;;7.43;6.93;;;;;;;37.22;25.13;98830.38;4915891;29;20202;-65
2022/08/13 10:49:10;;;;;;;9.10;7.53;;;;;;;37.04;24.87;98840.50;4915909;29;20269;-66
2022/08/13 10:51:36;;;;;;;8.15;7.65;;;;;;;37.05;24.61;98838.53;4915482;29;20575;-66
2022/08/13 10:54:04;;;;;;;13.30;7.28;;;;;;;37.13;24.06;98840.16;4916115;29;20671;-65
2022/08/13 10:56:32;;;;;;;7.88;7.30;;;;;;;37.12;23.83;98824.72;4916271;29;20621;-65
2022/08/13 10:59:01;;;;;;;7.68;7.18;;;;;;;36.54;25.10;98830.22;4915916;29;20265;-65
2022/08/13 11:01:29;;;;;;;7.63;6.85;;;;;;;36.32;24.81;98822.94;4915522;29;20197;-65
2022/08/13 11:03:58;;;;;;;7.30;6.90;;;;;;;36.37;25.11;98835.59;4916049;29;20205;-65
2022/08/13 11:06:27;;;;;;;7.60;7.20;;;;;;;36.44;24.93;98832.91;4916145;29;20284;-65
2022/08/13 11:08:56;;;;;;;7.13;6.63;;;;;;;35.88;25.35;98818.53;4915878;29;20240;-66
2022/08/13 11:11:23;;;;;;;8.23;7.47;;;;;;;35.70;26.29;98820.25;4915669;29;20201;-66
2022/08/13 11:13:51;;;;;;;8.25;7.65;;;;;;;35.91;26.16;98817.72;4915742;29;20225;-66
2022/08/13 11:19:15;;;;;;;7.85;7.10;;;;;;;35.67;26.10;98818.22;4915233;29;20260;-66
2022/08/13 11:21:45;;;;;;;7.15;6.65;;;;;;;35.85;26.03;98817.28;4915362;29;20646;-66
2022/08/13 11:24:13;;;;;;;7.93;7.25;;;;;;;35.88;25.99;98815.75;4915653;29;20206;-66
2022/08/13 11:26:41;;;;;;;7.32;6.75;;;;;;;36.06;25.32;98808.41;4915503;29;20422;-67
2022/08/13 11:29:09;;;;;;;6.50;6.00;;;;;;;36.10;24.72;98812.00;4916644;29;20193;-66
2022/08/13 11:31:36;;;;;;;7.90;7.20;;;;;;;35.98;24.79;98813.09;4915476;29;20257;-66
2022/08/13 11:34:02;;;;;;;7.88;7.10;;;;;;;35.92;24.91;98803.53;4915137;29;20276;-66
2022/08/13 11:36:29;;;;;;;7.35;6.68;;;;;;;35.97;24.75;98810.69;4915977;29;20336;-66
2022/08/13 11:38:56;;;;;;;6.63;6.18;;;;;;;35.95;24.84;98804.75;4915461;29;20197;-66
2022/08/13 11:41:23;;;;;;;6.28;5.97;;;;;;;35.78;24.53;98799.81;4915469;29;20197;-66
2022/08/13 11:43:51;;;;;;;7.28;6.70;;;;;;;35.93;25.16;98787.75;4915421;29;20280;-67
2022/08/13 11:46:19;;;;;;;8.02;6.80;;;;;;;36.11;25.17;98783.16;4915397;29;20581;-66
2022/08/13 11:48:46;;;;;;;7.53;6.65;;;;;;;36.22;24.67;98786.88;4917085;29;20229;-66
2022/08/13 11:51:13;;;;;;;6.57;6.18;;;;;;;36.06;24.68;98786.28;4919100;29;20261;-66
2022/08/13 11:53:40;;;;;;;6.90;6.50;;;;;;;35.95;25.04;98785.38;4918475;29;20261;-66